sensor_id;sensor_type;location;lat;lon;timestamp;noise_LAeq;noise_LA_min;noise_LA_max;noise_LA01;noise_LA95
48148;Laerm;29352;48.708;9.290;2022-10-31T00:01:12;49.96;47.52;52.03;;
48148;Laerm;29352;48.708;9.290;2022-10-31T00:03:38;49.96;47.32;51.68;;
48148;Laerm;29352;48.708;9.290;2022-10-31T00:06:03;50.05;47.52;51.96;;
48148;Laerm;29352;48.708;9.290;2022-10-31T00:08:28;50.08;47.32;51.89;;
48148;Laerm;29352;48.708;9.290;2022-10-31T00:10:54;50.06;47.70;52.16;;
48148;Laerm;29352;48.708;9.290;2022-10-31T00:13:19;49.95;47.32;51.82;;
48148;Laerm;29352;48.708;9.290;2022-10-31T00:15:44;50.00;47.32;51.75;;
48148;Laerm;29352;48.708;9.290;2022-10-31T00:18:10;49.99;47.12;53.14;;
48148;Laerm;29352;48.708;9.290;2022-10-31T00:20:37;49.97;47.52;52.71;;
48148;Laerm;29352;48.708;9.290;2022-10-31T00:23:04;49.94;47.12;51.68;;
48148;Laerm;29352;48.708;9.290;2022-10-31T00:25:35;49.94;46.91;52.16;;
48148;Laerm;29352;48.708;9.290;2022-10-31T00:28:03;49.90;47.52;51.68;;
48148;Laerm;29352;48.708;9.290;2022-10-31T00:30:28;49.93;47.52;51.96;;
48148;Laerm;29352;48.708;9.290;2022-10-31T00:32:54;50.00;47.32;51.68;;
48148;Laerm;29352;48.708;9.290;2022-10-31T00:35:19;49.95;47.35;51.89;;
48148;Laerm;29352;48.708;9.290;2022-10-31T00:37:44;49.85;47.12;51.82;;
48148;Laerm;29352;48.708;9.290;2022-10-31T00:40:10;49.82;46.91;51.96;;
48148;Laerm;29352;48.708;9.290;2022-10-31T00:42:42;49.85;47.12;51.68;;
48148;Laerm;29352;48.708;9.290;2022-10-31T00:45:09;49.91;47.52;51.82;;
48148;Laerm;29352;48.708;9.290;2022-10-31T00:47:35;49.87;47.12;51.82;;
48148;Laerm;29352;48.708;9.290;2022-10-31T00:50:02;49.80;47.32;51.96;;
48148;Laerm;29352;48.708;9.290;2022-10-31T00:52:28;49.73;47.32;51.61;;
48148;Laerm;29352;48.708;9.290;2022-10-31T00:54:53;49.75;47.32;51.75;;
48148;Laerm;29352;48.708;9.290;2022-10-31T00:57:18;49.76;46.91;51.89;;
48148;Laerm;29352;48.708;9.290;2022-10-31T00:59:44;49.89;47.12;51.68;;
48148;Laerm;29352;48.708;9.290;2022-10-31T01:02:09;49.91;47.12;51.89;;
48148;Laerm;29352;48.708;9.290;2022-10-31T01:04:34;49.89;47.52;51.82;;
48148;Laerm;29352;48.708;9.290;2022-10-31T01:07:00;49.92;46.69;51.89;;
48148;Laerm;29352;48.708;9.290;2022-10-31T01:09:25;49.91;47.52;51.82;;
48148;Laerm;29352;48.708;9.290;2022-10-31T01:11:51;49.83;47.12;51.82;;
48148;Laerm;29352;48.708;9.290;2022-10-31T01:14:16;49.85;46.91;51.75;;
48148;Laerm;29352;48.708;9.290;2022-10-31T01:16:42;49.83;46.91;52.03;;
48148;Laerm;29352;48.708;9.290;2022-10-31T01:19:07;49.74;46.91;51.61;;
48148;Laerm;29352;48.708;9.290;2022-10-31T01:21:32;49.82;47.32;51.68;;
48148;Laerm;29352;48.708;9.290;2022-10-31T01:23:59;49.81;47.12;51.96;;
48148;Laerm;29352;48.708;9.290;2022-10-31T01:26:30;49.79;47.32;51.68;;
48148;Laerm;29352;48.708;9.290;2022-10-31T01:29:05;49.78;47.12;51.89;;
48148;Laerm;29352;48.708;9.290;2022-10-31T01:31:36;49.82;46.91;51.75;;
48148;Laerm;29352;48.708;9.290;2022-10-31T01:34:04;49.82;47.12;51.75;;
48148;Laerm;29352;48.708;9.290;2022-10-31T01:36:35;49.79;47.52;51.75;;
48148;Laerm;29352;48.708;9.290;2022-10-31T01:39:08;49.76;46.69;51.82;;
48148;Laerm;29352;48.708;9.290;2022-10-31T01:41:38;49.72;47.12;52.42;;
48148;Laerm;29352;48.708;9.290;2022-10-31T01:49:20;49.66;46.91;51.68;;
48148;Laerm;29352;48.708;9.290;2022-10-31T01:51:58;49.71;46.45;51.61;;
48148;Laerm;29352;48.708;9.290;2022-10-31T01:54:33;49.70;47.12;51.61;;
48148;Laerm;29352;48.708;9.290;2022-10-31T01:57:04;49.68;46.45;51.68;;
48148;Laerm;29352;48.708;9.290;2022-10-31T01:59:39;49.65;47.12;51.68;;
48148;Laerm;29352;48.708;9.290;2022-10-31T02:02:06;49.63;46.69;51.48;;
48148;Laerm;29352;48.708;9.290;2022-10-31T02:04:34;49.68;47.12;51.53;;
48148;Laerm;29352;48.708;9.290;2022-10-31T02:07:14;49.71;47.12;51.68;;
48148;Laerm;29352;48.708;9.290;2022-10-31T02:09:45;49.74;46.91;51.68;;
48148;Laerm;29352;48.708;9.290;2022-10-31T02:12:13;49.75;47.12;51.75;;
48148;Laerm;29352;48.708;9.290;2022-10-31T02:14:40;49.82;46.45;52.03;;
48148;Laerm;29352;48.708;9.290;2022-10-31T02:17:06;49.82;46.91;51.75;;
48148;Laerm;29352;48.708;9.290;2022-10-31T02:19:56;49.78;46.69;51.75;;
48148;Laerm;29352;48.708;9.290;2022-10-31T02:33:53;49.84;47.12;51.68;;
48148;Laerm;29352;48.708;9.290;2022-10-31T02:39:59;49.78;46.69;51.96;;
48148;Laerm;29352;48.708;9.290;2022-10-31T02:42:57;49.78;47.12;52.09;;
48148;Laerm;29352;48.708;9.290;2022-10-31T02:45:29;49.77;46.91;51.82;;
48148;Laerm;29352;48.708;9.290;2022-10-31T02:48:08;49.73;46.91;51.61;;
48148;Laerm;29352;48.708;9.290;2022-10-31T02:50:42;49.72;46.45;51.68;;
48148;Laerm;29352;48.708;9.290;2022-10-31T02:53:15;49.76;46.20;51.82;;
48148;Laerm;29352;48.708;9.290;2022-10-31T02:56:18;49.73;46.69;51.89;;
48148;Laerm;29352;48.708;9.290;2022-10-31T02:58:53;49.67;47.12;51.61;;
48148;Laerm;29352;48.708;9.290;2022-10-31T03:05:22;49.68;46.91;51.46;;
48148;Laerm;29352;48.708;9.290;2022-10-31T03:11:07;49.41;46.45;51.46;;
48148;Laerm;29352;48.708;9.290;2022-10-31T03:13:51;49.44;46.45;51.46;;
48148;Laerm;29352;48.708;9.290;2022-10-31T03:16:47;49.35;46.69;51.68;;
48148;Laerm;29352;48.708;9.290;2022-10-31T03:19:23;49.42;46.45;51.53;;
48148;Laerm;29352;48.708;9.290;2022-10-31T03:22:23;49.43;46.20;51.75;;
48148;Laerm;29352;48.708;9.290;2022-10-31T03:24:52;49.40;46.69;51.46;;
48148;Laerm;29352;48.708;9.290;2022-10-31T03:27:28;49.20;46.69;51.30;;
48148;Laerm;29352;48.708;9.290;2022-10-31T03:30:03;49.20;46.45;51.53;;
48148;Laerm;29352;48.708;9.290;2022-10-31T03:32:39;49.24;46.45;51.14;;
48148;Laerm;29352;48.708;9.290;2022-10-31T03:35:11;49.24;46.10;51.53;;
48148;Laerm;29352;48.708;9.290;2022-10-31T03:37:42;49.35;46.45;51.46;;
48148;Laerm;29352;48.708;9.290;2022-10-31T03:40:12;49.25;46.20;51.22;;
48148;Laerm;29352;48.708;9.290;2022-10-31T03:42:48;49.20;46.20;51.30;;
48148;Laerm;29352;48.708;9.290;2022-10-31T03:45:30;49.19;46.20;51.30;;
48148;Laerm;29352;48.708;9.290;2022-10-31T03:47:59;49.21;45.66;51.14;;
48148;Laerm;29352;48.708;9.290;2022-10-31T03:50:38;49.25;46.69;51.30;;
48148;Laerm;29352;48.708;9.290;2022-10-31T03:53:26;49.24;46.20;51.19;;
48148;Laerm;29352;48.708;9.290;2022-10-31T03:56:09;49.25;46.69;51.30;;
48148;Laerm;29352;48.708;9.290;2022-10-31T04:01:18;49.29;46.20;51.14;;
48148;Laerm;29352;48.708;9.290;2022-10-31T04:03:46;49.33;46.69;51.38;;
48148;Laerm;29352;48.708;9.290;2022-10-31T04:06:17;49.28;46.45;51.61;;
48148;Laerm;29352;48.708;9.290;2022-10-31T04:08:58;49.38;46.20;51.46;;
48148;Laerm;29352;48.708;9.290;2022-10-31T04:11:33;49.30;45.94;51.46;;
48148;Laerm;29352;48.708;9.290;2022-10-31T04:14:04;49.35;45.94;51.46;;
48148;Laerm;29352;48.708;9.290;2022-10-31T04:16:31;49.24;46.45;51.22;;
48148;Laerm;29352;48.708;9.290;2022-10-31T04:18:56;49.30;46.91;51.53;;
48148;Laerm;29352;48.708;9.290;2022-10-31T04:21:30;49.37;45.86;51.61;;
48148;Laerm;29352;48.708;9.290;2022-10-31T04:23:56;49.33;46.45;51.46;;
48148;Laerm;29352;48.708;9.290;2022-10-31T04:26:22;49.24;46.20;51.22;;
48148;Laerm;29352;48.708;9.290;2022-10-31T04:28:48;49.23;46.45;51.53;;
48148;Laerm;29352;48.708;9.290;2022-10-31T04:31:14;49.16;46.69;51.46;;
48148;Laerm;29352;48.708;9.290;2022-10-31T04:33:39;49.25;46.20;51.68;;
48148;Laerm;29352;48.708;9.290;2022-10-31T04:36:05;49.19;46.20;51.38;;
48148;Laerm;29352;48.708;9.290;2022-10-31T04:38:31;49.98;46.56;77.77;;
48148;Laerm;29352;48.708;9.290;2022-10-31T04:40:56;49.26;46.20;51.14;;
48148;Laerm;29352;48.708;9.290;2022-10-31T04:43:22;49.18;46.20;51.22;;
48148;Laerm;29352;48.708;9.290;2022-10-31T04:45:47;49.27;46.20;51.38;;
48148;Laerm;29352;48.708;9.290;2022-10-31T04:48:13;49.29;46.45;51.61;;
48148;Laerm;29352;48.708;9.290;2022-10-31T04:50:40;49.32;46.45;51.61;;
48148;Laerm;29352;48.708;9.290;2022-10-31T04:53:05;49.33;46.20;51.46;;
48148;Laerm;29352;48.708;9.290;2022-10-31T04:55:31;49.26;46.45;51.41;;
48148;Laerm;29352;48.708;9.290;2022-10-31T04:57:57;49.25;45.94;51.38;;
48148;Laerm;29352;48.708;9.290;2022-10-31T05:00:23;49.38;46.69;51.46;;
48148;Laerm;29352;48.708;9.290;2022-10-31T05:02:54;49.36;46.20;51.22;;
48148;Laerm;29352;48.708;9.290;2022-10-31T05:05:25;49.43;46.20;51.46;;
48148;Laerm;29352;48.708;9.290;2022-10-31T05:07:52;49.41;46.69;51.75;;
48148;Laerm;29352;48.708;9.290;2022-10-31T05:10:22;49.33;46.45;51.22;;
48148;Laerm;29352;48.708;9.290;2022-10-31T05:12:54;49.36;46.45;51.46;;
48148;Laerm;29352;48.708;9.290;2022-10-31T05:15:22;49.38;46.45;51.22;;
48148;Laerm;29352;48.708;9.290;2022-10-31T05:17:50;49.25;46.20;51.22;;
48148;Laerm;29352;48.708;9.290;2022-10-31T05:20:19;49.25;46.69;51.46;;
48148;Laerm;29352;48.708;9.290;2022-10-31T05:22:51;49.39;46.69;51.53;;
48148;Laerm;29352;48.708;9.290;2022-10-31T05:25:19;49.38;46.69;51.38;;
48148;Laerm;29352;48.708;9.290;2022-10-31T05:27:47;49.36;46.20;51.96;;
48148;Laerm;29352;48.708;9.290;2022-10-31T05:30:19;49.27;46.20;51.22;;
48148;Laerm;29352;48.708;9.290;2022-10-31T05:32:49;49.30;46.45;51.22;;
48148;Laerm;29352;48.708;9.290;2022-10-31T05:35:24;49.26;45.66;51.46;;
48148;Laerm;29352;48.708;9.290;2022-10-31T05:37:49;49.32;46.20;51.38;;
48148;Laerm;29352;48.708;9.290;2022-10-31T05:40:18;49.23;46.20;51.38;;
48148;Laerm;29352;48.708;9.290;2022-10-31T05:42:44;49.16;46.45;51.22;;
48148;Laerm;29352;48.708;9.290;2022-10-31T05:45:14;49.27;45.94;51.22;;
48148;Laerm;29352;48.708;9.290;2022-10-31T05:47:40;49.30;46.45;51.61;;
48148;Laerm;29352;48.708;9.290;2022-10-31T05:50:07;49.39;46.34;51.61;;
48148;Laerm;29352;48.708;9.290;2022-10-31T05:52:33;49.43;45.94;51.75;;
48148;Laerm;29352;48.708;9.290;2022-10-31T05:54:58;49.32;46.45;51.48;;
48148;Laerm;29352;48.708;9.290;2022-10-31T05:57:24;49.42;46.45;51.61;;
48148;Laerm;29352;48.708;9.290;2022-10-31T05:59:50;49.32;46.20;51.38;;
48148;Laerm;29352;48.708;9.290;2022-10-31T06:02:21;49.29;46.45;51.48;;
48148;Laerm;29352;48.708;9.290;2022-10-31T06:04:46;49.35;46.20;51.38;;
48148;Laerm;29352;48.708;9.290;2022-10-31T06:07:12;49.24;45.94;51.53;;
48148;Laerm;29352;48.708;9.290;2022-10-31T06:09:37;49.28;46.69;51.46;;
48148;Laerm;29352;48.708;9.290;2022-10-31T06:12:03;49.27;46.20;51.38;;
48148;Laerm;29352;48.708;9.290;2022-10-31T06:14:28;49.26;45.94;51.38;;
48148;Laerm;29352;48.708;9.290;2022-10-31T06:16:55;49.30;46.69;51.61;;
48148;Laerm;29352;48.708;9.290;2022-10-31T06:19:21;49.27;45.66;51.38;;
48148;Laerm;29352;48.708;9.290;2022-10-31T06:21:47;49.26;45.94;51.53;;
48148;Laerm;29352;48.708;9.290;2022-10-31T06:24:12;49.39;45.94;51.53;;
48148;Laerm;29352;48.708;9.290;2022-10-31T06:26:37;49.39;46.69;51.68;;
48148;Laerm;29352;48.708;9.290;2022-10-31T06:29:03;49.44;46.91;51.53;;
48148;Laerm;29352;48.708;9.290;2022-10-31T06:31:29;49.37;46.20;51.46;;
48148;Laerm;29352;48.708;9.290;2022-10-31T06:33:54;49.31;45.86;51.46;;
48148;Laerm;29352;48.708;9.290;2022-10-31T06:36:19;49.44;45.36;51.61;;
48148;Laerm;29352;48.708;9.290;2022-10-31T06:38:45;49.28;45.94;51.46;;
48148;Laerm;29352;48.708;9.290;2022-10-31T06:41:10;49.49;46.45;51.96;;
48148;Laerm;29352;48.708;9.290;2022-10-31T06:43:35;49.48;46.69;57.00;;
48148;Laerm;29352;48.708;9.290;2022-10-31T06:46:05;49.54;45.66;51.38;;
48148;Laerm;29352;48.708;9.290;2022-10-31T06:48:31;49.62;46.69;51.61;;
48148;Laerm;29352;48.708;9.290;2022-10-31T06:51:00;49.55;45.94;51.53;;
48148;Laerm;29352;48.708;9.290;2022-10-31T06:53:28;49.67;46.20;51.75;;
48148;Laerm;29352;48.708;9.290;2022-10-31T06:55:56;49.68;47.12;51.75;;
48148;Laerm;29352;48.708;9.290;2022-10-31T06:58:22;49.58;46.69;51.53;;
48148;Laerm;29352;48.708;9.290;2022-10-31T07:00:47;49.73;46.56;51.68;;
48148;Laerm;29352;48.708;9.290;2022-10-31T07:03:15;49.86;47.32;56.35;;
48148;Laerm;29352;48.708;9.290;2022-10-31T07:05:41;50.33;47.52;53.09;;
48148;Laerm;29352;48.708;9.290;2022-10-31T07:08:13;50.97;49.08;54.73;;
48148;Laerm;29352;48.708;9.290;2022-10-31T07:10:41;51.67;49.34;55.07;;
48148;Laerm;29352;48.708;9.290;2022-10-31T07:13:13;52.70;51.06;55.30;;
48148;Laerm;29352;48.708;9.290;2022-10-31T07:15:41;52.92;51.82;54.83;;
48148;Laerm;29352;48.708;9.290;2022-10-31T07:18:11;53.49;52.29;55.66;;
48148;Laerm;29352;48.708;9.290;2022-10-31T07:20:37;53.46;52.22;59.84;;
48148;Laerm;29352;48.708;9.290;2022-10-31T07:23:03;53.49;52.22;55.14;;
48148;Laerm;29352;48.708;9.290;2022-10-31T07:25:29;53.79;52.29;62.55;;
48148;Laerm;29352;48.708;9.290;2022-10-31T07:27:55;53.85;52.71;56.05;;
48148;Laerm;29352;48.708;9.290;2022-10-31T07:30:20;54.07;52.98;57.93;;
48148;Laerm;29352;48.708;9.290;2022-10-31T07:32:49;53.93;52.93;56.69;;
48148;Laerm;29352;48.708;9.290;2022-10-31T07:37:49;53.91;52.65;56.64;;
48148;Laerm;29352;48.708;9.290;2022-10-31T07:40:16;53.84;52.76;57.06;;
48148;Laerm;29352;48.708;9.290;2022-10-31T07:42:45;53.87;52.59;62.74;;
48148;Laerm;29352;48.708;9.290;2022-10-31T07:45:14;54.02;52.82;61.02;;
48148;Laerm;29352;48.708;9.290;2022-10-31T07:47:43;54.09;52.93;58.69;;
48148;Laerm;29352;48.708;9.290;2022-10-31T07:50:19;54.18;53.04;58.77;;
48148;Laerm;29352;48.708;9.290;2022-10-31T07:52:45;54.22;52.93;61.70;;
48148;Laerm;29352;48.708;9.290;2022-10-31T07:55:12;54.26;52.98;66.62;;
48148;Laerm;29352;48.708;9.290;2022-10-31T07:57:37;54.19;53.00;63.92;;
48148;Laerm;29352;48.708;9.290;2022-10-31T08:00:06;54.23;52.76;61.40;;
48148;Laerm;29352;48.708;9.290;2022-10-31T08:02:32;54.19;53.04;62.79;;
48148;Laerm;29352;48.708;9.290;2022-10-31T08:04:57;54.35;53.09;65.33;;
48148;Laerm;29352;48.708;9.290;2022-10-31T08:07:25;54.51;53.04;66.69;;
48148;Laerm;29352;48.708;9.290;2022-10-31T08:09:52;54.76;53.33;63.52;;
48148;Laerm;29352;48.708;9.290;2022-10-31T08:12:18;54.59;53.19;64.04;;
48148;Laerm;29352;48.708;9.290;2022-10-31T08:14:44;54.45;53.24;59.38;;
48148;Laerm;29352;48.708;9.290;2022-10-31T08:17:10;54.42;53.24;61.13;;
48148;Laerm;29352;48.708;9.290;2022-10-31T08:19:36;54.44;53.09;59.12;;
48148;Laerm;29352;48.708;9.290;2022-10-31T08:22:01;54.68;53.14;62.48;;
48148;Laerm;29352;48.708;9.290;2022-10-31T08:24:27;54.61;53.14;62.45;;
48148;Laerm;29352;48.708;9.290;2022-10-31T08:26:52;54.73;53.19;63.09;;
48148;Laerm;29352;48.708;9.290;2022-10-31T08:29:18;54.64;53.14;63.69;;
48148;Laerm;29352;48.708;9.290;2022-10-31T08:31:43;54.70;53.44;64.28;;
48148;Laerm;29352;48.708;9.290;2022-10-31T08:34:09;54.76;53.24;62.18;;
48148;Laerm;29352;48.708;9.290;2022-10-31T08:36:34;54.65;53.19;69.34;;
48148;Laerm;29352;48.708;9.290;2022-10-31T08:39:01;54.47;53.19;69.20;;
48148;Laerm;29352;48.708;9.290;2022-10-31T08:41:26;54.41;53.19;65.35;;
48148;Laerm;29352;48.708;9.290;2022-10-31T08:43:52;54.38;53.19;60.01;;
48148;Laerm;29352;48.708;9.290;2022-10-31T08:46:18;54.30;53.19;57.67;;
48148;Laerm;29352;48.708;9.290;2022-10-31T08:48:44;54.27;53.19;58.18;;
48148;Laerm;29352;48.708;9.290;2022-10-31T08:51:12;54.34;53.19;57.72;;
48148;Laerm;29352;48.708;9.290;2022-10-31T08:53:37;54.35;53.24;57.72;;
48148;Laerm;29352;48.708;9.290;2022-10-31T08:56:03;54.27;52.88;57.05;;
48148;Laerm;29352;48.708;9.290;2022-10-31T08:58:28;54.25;53.09;55.99;;
48148;Laerm;29352;48.708;9.290;2022-10-31T09:00:54;54.24;53.19;55.94;;
48148;Laerm;29352;48.708;9.290;2022-10-31T09:03:30;54.26;53.19;57.24;;
48148;Laerm;29352;48.708;9.290;2022-10-31T09:06:00;54.25;53.09;64.35;;
48148;Laerm;29352;48.708;9.290;2022-10-31T09:08:29;54.32;53.24;57.86;;
48148;Laerm;29352;48.708;9.290;2022-10-31T09:10:59;54.39;53.19;60.42;;
48148;Laerm;29352;48.708;9.290;2022-10-31T09:13:24;54.38;53.19;61.36;;
48148;Laerm;29352;48.708;9.290;2022-10-31T09:15:51;54.32;53.19;58.71;;
48148;Laerm;29352;48.708;9.290;2022-10-31T09:18:21;54.31;53.09;58.10;;
48148;Laerm;29352;48.708;9.290;2022-10-31T09:20:49;54.30;53.24;57.55;;
48148;Laerm;29352;48.708;9.290;2022-10-31T09:23:22;54.25;53.24;57.40;;
48148;Laerm;29352;48.708;9.290;2022-10-31T09:25:50;54.28;53.24;60.90;;
48148;Laerm;29352;48.708;9.290;2022-10-31T09:28:19;54.21;53.19;57.26;;
48148;Laerm;29352;48.708;9.290;2022-10-31T09:30:48;54.22;53.14;57.55;;
48148;Laerm;29352;48.708;9.290;2022-10-31T09:33:15;54.27;53.04;59.12;;
48148;Laerm;29352;48.708;9.290;2022-10-31T09:35:41;54.25;53.14;58.15;;
48148;Laerm;29352;48.708;9.290;2022-10-31T09:38:17;54.18;52.98;55.77;;
48148;Laerm;29352;48.708;9.290;2022-10-31T09:41:02;54.22;53.09;61.04;;
48148;Laerm;29352;48.708;9.290;2022-10-31T09:46:40;54.16;53.00;56.61;;
48148;Laerm;29352;48.708;9.290;2022-10-31T09:52:33;54.16;52.93;56.73;;
48148;Laerm;29352;48.708;9.290;2022-10-31T09:55:27;54.18;52.98;57.77;;
48148;Laerm;29352;48.708;9.290;2022-10-31T09:57:55;54.15;53.09;58.63;;
48148;Laerm;29352;48.708;9.290;2022-10-31T10:00:22;54.15;52.88;58.05;;
48148;Laerm;29352;48.708;9.290;2022-10-31T10:03:10;54.20;52.93;59.12;;
48148;Laerm;29352;48.708;9.290;2022-10-31T10:06:18;54.12;53.00;57.10;;
48148;Laerm;29352;48.708;9.290;2022-10-31T10:08:44;54.16;52.98;58.52;;
48148;Laerm;29352;48.708;9.290;2022-10-31T10:14:34;54.14;52.88;58.25;;
48148;Laerm;29352;48.708;9.290;2022-10-31T10:20:30;54.22;52.93;62.35;;
48148;Laerm;29352;48.708;9.290;2022-10-31T10:23:36;54.09;52.93;63.52;;
48148;Laerm;29352;48.708;9.290;2022-10-31T10:28:43;54.07;52.98;56.55;;
48148;Laerm;29352;48.708;9.290;2022-10-31T10:31:28;54.13;52.82;57.02;;
48148;Laerm;29352;48.708;9.290;2022-10-31T10:34:23;54.03;52.88;58.36;;
48148;Laerm;29352;48.708;9.290;2022-10-31T10:37:02;54.09;52.76;58.63;;
48148;Laerm;29352;48.708;9.290;2022-10-31T10:39:48;54.02;52.76;61.74;;
48148;Laerm;29352;48.708;9.290;2022-10-31T10:42:16;53.92;52.88;58.08;;
48148;Laerm;29352;48.708;9.290;2022-10-31T10:45:15;53.83;52.65;57.18;;
48148;Laerm;29352;48.708;9.290;2022-10-31T10:48:29;53.92;52.65;59.53;;
48148;Laerm;29352;48.708;9.290;2022-10-31T10:51:01;53.79;52.65;55.33;;
48148;Laerm;29352;48.708;9.290;2022-10-31T10:54:17;53.81;52.71;55.60;;
48148;Laerm;29352;48.708;9.290;2022-10-31T10:57:07;53.84;52.65;55.20;;
48148;Laerm;29352;48.708;9.290;2022-10-31T10:59:35;53.87;52.76;54.94;;
48148;Laerm;29352;48.708;9.290;2022-10-31T11:02:03;53.87;52.71;54.97;;
48148;Laerm;29352;48.708;9.290;2022-10-31T11:04:40;53.92;52.82;56.18;;
48148;Laerm;29352;48.708;9.290;2022-10-31T11:07:12;54.02;52.65;56.91;;
48148;Laerm;29352;48.708;9.290;2022-10-31T11:09:38;54.02;52.93;60.48;;
48148;Laerm;29352;48.708;9.290;2022-10-31T11:12:32;53.93;52.93;54.94;;
48148;Laerm;29352;48.708;9.290;2022-10-31T11:15:07;53.92;52.76;54.90;;
48148;Laerm;29352;48.708;9.290;2022-10-31T11:17:39;53.95;52.82;58.28;;
48148;Laerm;29352;48.708;9.290;2022-10-31T11:22:37;54.05;52.93;56.35;;
48148;Laerm;29352;48.708;9.290;2022-10-31T11:25:23;54.01;52.76;55.69;;
48148;Laerm;29352;48.708;9.290;2022-10-31T11:28:08;53.97;52.82;55.04;;
48148;Laerm;29352;48.708;9.290;2022-10-31T11:30:58;53.91;52.82;56.15;;
48148;Laerm;29352;48.708;9.290;2022-10-31T11:36:01;53.88;52.69;55.04;;
48148;Laerm;29352;48.708;9.290;2022-10-31T11:38:40;53.95;52.76;55.07;;
48148;Laerm;29352;48.708;9.290;2022-10-31T11:41:25;53.92;52.82;55.96;;
48148;Laerm;29352;48.708;9.290;2022-10-31T11:44:04;53.89;52.53;54.87;;
48148;Laerm;29352;48.708;9.290;2022-10-31T11:46:46;53.93;52.71;56.38;;
48148;Laerm;29352;48.708;9.290;2022-10-31T11:52:04;53.95;52.35;54.97;;
48148;Laerm;29352;48.708;9.290;2022-10-31T11:54:46;53.88;52.76;54.80;;
48148;Laerm;29352;48.708;9.290;2022-10-31T11:57:41;53.87;52.76;55.45;;
48148;Laerm;29352;48.708;9.290;2022-10-31T12:00:31;53.83;52.76;56.15;;
48148;Laerm;29352;48.708;9.290;2022-10-31T12:06:05;53.78;52.59;54.76;;
48148;Laerm;29352;48.708;9.290;2022-10-31T12:08:39;53.75;52.71;54.76;;
48148;Laerm;29352;48.708;9.290;2022-10-31T12:17:33;53.77;52.59;54.90;;
48148;Laerm;29352;48.708;9.290;2022-10-31T12:23:06;53.75;52.22;54.73;;
48148;Laerm;29352;48.708;9.290;2022-10-31T12:41:22;53.56;52.22;54.87;;
48148;Laerm;29352;48.708;9.290;2022-10-31T12:50:52;53.58;52.47;54.83;;
48148;Laerm;29352;48.708;9.290;2022-10-31T12:57:13;53.62;52.41;55.36;;
48148;Laerm;29352;48.708;9.290;2022-10-31T13:00:10;53.61;52.16;54.69;;
48148;Laerm;29352;48.708;9.290;2022-10-31T13:02:48;53.57;52.29;54.62;;
48148;Laerm;29352;48.708;9.290;2022-10-31T13:05:31;53.56;52.41;54.58;;
48148;Laerm;29352;48.708;9.290;2022-10-31T13:08:09;53.55;52.29;54.62;;
48148;Laerm;29352;48.708;9.290;2022-10-31T13:10:46;53.58;52.29;55.33;;
48148;Laerm;29352;48.708;9.290;2022-10-31T13:13:27;53.52;52.41;54.58;;
48148;Laerm;29352;48.708;9.290;2022-10-31T13:16:04;53.52;52.29;54.54;;
48148;Laerm;29352;48.708;9.290;2022-10-31T13:18:55;53.53;52.47;54.58;;
48148;Laerm;29352;48.708;9.290;2022-10-31T13:21:31;53.52;52.35;54.87;;
48148;Laerm;29352;48.708;9.290;2022-10-31T13:24:10;53.53;52.41;54.47;;
48148;Laerm;29352;48.708;9.290;2022-10-31T13:26:53;53.55;52.41;54.73;;
48148;Laerm;29352;48.708;9.290;2022-10-31T13:29:50;53.56;52.35;54.62;;
48148;Laerm;29352;48.708;9.290;2022-10-31T13:32:19;53.58;52.22;54.62;;
48148;Laerm;29352;48.708;9.290;2022-10-31T13:34:55;53.61;52.59;54.83;;
48148;Laerm;29352;48.708;9.290;2022-10-31T13:37:41;53.59;52.53;54.54;;
48148;Laerm;29352;48.708;9.290;2022-10-31T13:40:34;53.60;52.47;54.97;;
48148;Laerm;29352;48.708;9.290;2022-10-31T13:43:12;53.64;52.53;54.69;;
48148;Laerm;29352;48.708;9.290;2022-10-31T13:45:51;53.69;52.65;54.69;;
48148;Laerm;29352;48.708;9.290;2022-10-31T13:48:36;53.80;52.65;54.80;;
48148;Laerm;29352;48.708;9.290;2022-10-31T13:51:07;53.75;52.65;54.73;;
48148;Laerm;29352;48.708;9.290;2022-10-31T13:53:43;53.71;52.53;54.76;;
48148;Laerm;29352;48.708;9.290;2022-10-31T13:56:18;53.70;52.65;54.69;;
48148;Laerm;29352;48.708;9.290;2022-10-31T13:59:18;53.68;52.53;54.62;;
48148;Laerm;29352;48.708;9.290;2022-10-31T14:04:23;53.62;52.53;54.65;;
48148;Laerm;29352;48.708;9.290;2022-10-31T14:07:12;53.64;52.59;54.80;;
48148;Laerm;29352;48.708;9.290;2022-10-31T14:12:34;53.58;52.41;54.62;;
48148;Laerm;29352;48.708;9.290;2022-10-31T14:15:11;53.63;52.41;54.80;;
48148;Laerm;29352;48.708;9.290;2022-10-31T14:22:41;53.72;52.65;54.83;;
48148;Laerm;29352;48.708;9.290;2022-10-31T14:27:58;53.63;52.47;54.65;;
48148;Laerm;29352;48.708;9.290;2022-10-31T14:30:27;53.59;52.47;54.83;;
48148;Laerm;29352;48.708;9.290;2022-10-31T14:33:19;53.55;52.35;54.69;;
48148;Laerm;29352;48.708;9.290;2022-10-31T14:36:17;53.51;52.29;54.58;;
48148;Laerm;29352;48.708;9.290;2022-10-31T14:42:24;53.53;52.22;54.62;;
48148;Laerm;29352;48.708;9.290;2022-10-31T14:50:54;53.30;52.16;54.54;;
48148;Laerm;29352;48.708;9.290;2022-10-31T14:53:34;53.32;52.16;54.58;;
48148;Laerm;29352;48.708;9.290;2022-10-31T14:56:02;53.32;52.16;54.76;;
48148;Laerm;29352;48.708;9.290;2022-10-31T14:58:39;53.34;52.13;54.35;;
48148;Laerm;29352;48.708;9.290;2022-10-31T15:01:07;53.41;52.22;54.43;;
48148;Laerm;29352;48.708;9.290;2022-10-31T15:03:46;53.44;52.22;54.47;;
48148;Laerm;29352;48.708;9.290;2022-10-31T15:06:16;53.39;52.35;54.27;;
48148;Laerm;29352;48.708;9.290;2022-10-31T15:08:52;53.35;52.29;54.76;;
48148;Laerm;29352;48.708;9.290;2022-10-31T15:11:21;53.36;52.03;55.43;;
48148;Laerm;29352;48.708;9.290;2022-10-31T15:13:58;53.41;52.22;54.54;;
48148;Laerm;29352;48.708;9.290;2022-10-31T15:16:35;53.48;52.16;54.47;;
48148;Laerm;29352;48.708;9.290;2022-10-31T15:19:11;53.56;52.35;54.65;;
48148;Laerm;29352;48.708;9.290;2022-10-31T15:21:44;53.66;52.59;54.62;;
48148;Laerm;29352;48.708;9.290;2022-10-31T15:24:14;53.80;52.65;54.76;;
48148;Laerm;29352;48.708;9.290;2022-10-31T15:26:47;53.96;52.93;55.04;;
48148;Laerm;29352;48.708;9.290;2022-10-31T15:29:21;54.14;53.04;56.02;;
48148;Laerm;29352;48.708;9.290;2022-10-31T15:31:59;54.20;53.14;55.69;;
48148;Laerm;29352;48.708;9.290;2022-10-31T15:34:39;54.22;53.14;55.39;;
48148;Laerm;29352;48.708;9.290;2022-10-31T15:37:12;54.27;53.24;55.42;;
48148;Laerm;29352;48.708;9.290;2022-10-31T15:39:43;54.36;53.29;55.48;;
48148;Laerm;29352;48.708;9.290;2022-10-31T15:42:29;54.39;53.09;55.45;;
48148;Laerm;29352;48.708;9.290;2022-10-31T15:47:48;54.38;53.04;55.42;;
48148;Laerm;29352;48.708;9.290;2022-10-31T15:50:29;54.38;53.44;55.45;;
48148;Laerm;29352;48.708;9.290;2022-10-31T15:52:57;54.32;53.04;55.36;;
48148;Laerm;29352;48.708;9.290;2022-10-31T15:55:27;54.22;52.93;55.30;;
48148;Laerm;29352;48.708;9.290;2022-10-31T15:57:58;54.12;53.19;55.23;;
48148;Laerm;29352;48.708;9.290;2022-10-31T16:00:34;54.05;52.93;55.30;;
48148;Laerm;29352;48.708;9.290;2022-10-31T16:05:52;53.80;52.76;54.83;;
48148;Laerm;29352;48.708;9.290;2022-10-31T16:11:21;53.58;52.53;54.65;;
48148;Laerm;29352;48.708;9.290;2022-10-31T16:14:20;53.30;52.16;54.49;;
48148;Laerm;29352;48.708;9.290;2022-10-31T16:16:55;53.09;51.96;54.03;;
48148;Laerm;29352;48.708;9.290;2022-10-31T16:19:36;52.92;51.82;53.90;;